Time;durP1;ratioP1;P1;durP2;ratioP2;P2;SDS_P1;SDS_P2;PMS_P1;PMS_P2;Temp;Humidity;BMP_temperature;BMP_pressure;BME280_temperature;BME280_humidity;BME280_pressure;Samples;Min_cycle;Max_cycle;Signal;HPM_P1;HPM_P2
2022/09/14 00:00:12;;;;;;;4.50;1.63;;;;;;;15.36;73.64;99586.88;5101703;28;20439;-64
2022/09/14 00:02:39;;;;;;;5.10;1.90;;;;;;;15.36;73.54;99581.50;5115965;28;20443;-64
2022/09/14 00:05:06;;;;;;;6.60;1.57;;;;;;;15.37;73.58;99579.63;5110662;28;20462;-64
2022/09/14 00:07:34;;;;;;;3.83;1.30;;;;;;;15.38;73.22;99567.81;5119551;28;20487;-64
2022/09/14 00:10:01;;;;;;;8.13;1.77;;;;;;;15.37;73.83;99580.47;5117454;28;20475;-64
2022/09/14 00:12:28;;;;;;;5.60;1.60;;;;;;;15.34;73.62;99574.63;5102534;28;20510;-64
2022/09/14 00:14:54;;;;;;;2.23;1.33;;;;;;;15.27;73.52;99573.69;5109421;28;20471;-64
2022/09/14 00:17:21;;;;;;;4.20;1.40;;;;;;;15.22;73.54;99576.94;5099899;28;20549;-64
2022/09/14 00:19:48;;;;;;;8.63;1.50;;;;;;;15.17;73.76;99577.53;5121422;28;20446;-64
2022/09/14 00:22:14;;;;;;;3.20;1.50;;;;;;;15.17;73.66;99563.19;5121171;28;20489;-64
2022/09/14 00:24:42;;;;;;;4.87;1.80;;;;;;;15.07;74.01;99575.09;5116413;28;20454;-64
2022/09/14 00:27:09;;;;;;;4.70;1.60;;;;;;;15.03;74.11;99571.13;5102010;28;20510;-63
2022/09/14 00:29:35;;;;;;;5.93;1.47;;;;;;;15.01;74.23;99572.31;5108933;28;21303;-64
2022/09/14 00:32:03;;;;;;;3.10;1.10;;;;;;;14.87;74.63;99571.28;5120765;28;20506;-64
2022/09/14 00:34:29;;;;;;;7.00;1.80;;;;;;;14.82;74.82;99568.31;5109042;28;20471;-64
2022/09/14 00:36:56;;;;;;;9.20;1.63;;;;;;;14.81;74.67;99559.44;5116571;28;20478;-64
2022/09/14 00:39:24;;;;;;;8.00;1.37;;;;;;;14.79;74.77;99561.47;5104937;28;20519;-64
2022/09/14 00:41:52;;;;;;;4.07;1.50;;;;;;;14.90;74.62;99560.16;5099403;28;20526;-64
2022/09/14 00:45:11;;;;;;;5.57;1.70;;;;;;;14.95;74.26;99556.94;5102015;28;20506;-65
2022/09/14 00:47:37;;;;;;;3.70;1.33;;;;;;;14.98;74.68;99552.00;5056781;28;20496;-64
2022/09/14 00:50:05;;;;;;;5.13;1.70;;;;;;;15.00;74.81;99549.13;5059966;28;20477;-64
2022/09/14 00:52:34;;;;;;;6.10;1.47;;;;;;;14.97;74.76;99536.88;5071021;28;20491;-64
2022/09/14 00:55:04;;;;;;;6.37;1.40;;;;;;;14.88;75.66;99538.00;5058386;28;20468;-64
2022/09/14 00:57:36;;;;;;;3.80;1.57;;;;;;;14.84;76.31;99534.84;5065878;28;20480;-65
2022/09/14 01:00:05;;;;;;;3.80;1.47;;;;;;;14.88;76.64;99528.06;5068210;28;20516;-64
2022/09/14 01:02:33;;;;;;;5.43;2.13;;;;;;;14.81;77.29;99535.19;5066551;28;20472;-64
2022/09/14 01:05:00;;;;;;;4.47;2.50;;;;;;;14.74;77.85;99528.03;5061548;28;21180;-64
2022/09/14 01:07:34;;;;;;;3.87;1.80;;;;;;;14.73;78.29;99529.09;5060749;28;20507;-64
2022/09/14 01:10:13;;;;;;;4.13;2.40;;;;;;;14.66;79.07;99534.38;5056890;28;20456;-64
2022/09/14 01:12:49;;;;;;;6.13;2.40;;;;;;;14.62;79.47;99528.53;5064745;28;21215;-63
2022/09/14 01:15:23;;;;;;;4.57;2.17;;;;;;;14.62;79.30;99531.22;5074308;28;20436;-63
2022/09/14 01:18:00;;;;;;;4.60;1.90;;;;;;;14.63;79.43;99524.81;5080825;28;20451;-65
2022/09/14 01:20:30;;;;;;;3.10;1.87;;;;;;;14.66;79.55;99523.59;5102075;28;20490;-65
2022/09/14 01:23:02;;;;;;;5.93;2.27;;;;;;;14.65;79.88;99520.09;5107340;28;20474;-64
2022/09/14 01:25:58;;;;;;;5.70;2.13;;;;;;;14.66;79.39;99518.22;5110356;28;20470;-64
2022/09/14 01:28:30;;;;;;;8.47;2.23;;;;;;;14.63;79.35;99508.69;5100623;28;20482;-64
2022/09/14 01:30:58;;;;;;;10.03;2.13;;;;;;;14.64;79.02;99502.25;5099889;28;20530;-64
2022/09/14 01:33:28;;;;;;;6.30;2.33;;;;;;;14.62;79.00;99508.88;5119281;28;20454;-65
2022/09/14 01:35:56;;;;;;;4.67;1.80;;;;;;;14.61;78.96;99513.38;5100902;28;20479;-64
2022/09/14 01:38:27;;;;;;;5.30;1.53;;;;;;;14.60;78.86;99514.41;5100714;28;20451;-64
2022/09/14 01:40:54;;;;;;;4.83;1.57;;;;;;;14.61;79.20;99510.69;5102232;28;20494;-64
2022/09/14 01:43:25;;;;;;;6.80;2.20;;;;;;;14.62;79.33;99515.06;5109832;28;20512;-64
2022/09/14 01:45:56;;;;;;;4.53;2.40;;;;;;;14.62;79.28;99514.25;5113686;28;20513;-64
2022/09/14 01:48:25;;;;;;;2.73;1.73;;;;;;;14.64;79.14;99507.63;5119638;28;20462;-64
2022/09/14 01:50:54;;;;;;;6.73;1.97;;;;;;;14.66;78.98;99504.78;5118570;28;20466;-64
2022/09/14 01:53:24;;;;;;;3.90;1.90;;;;;;;14.66;78.92;99512.84;5117067;28;20921;-63
2022/09/14 01:55:54;;;;;;;4.07;1.90;;;;;;;14.63;78.89;99503.31;5119830;28;20503;-63
2022/09/14 01:58:26;;;;;;;2.83;1.83;;;;;;;14.61;78.96;99502.63;5118346;28;20808;-63
2022/09/14 02:00:55;;;;;;;7.00;1.90;;;;;;;14.59;78.77;99503.84;5109034;28;20473;-63
2022/09/14 02:03:24;;;;;;;4.10;1.77;;;;;;;14.56;78.73;99502.31;5105985;28;20450;-63
2022/09/14 02:05:55;;;;;;;6.80;1.73;;;;;;;14.53;78.81;99500.00;5117915;28;20493;-63
2022/09/14 02:08:22;;;;;;;4.50;2.07;;;;;;;14.48;78.65;99492.50;5118105;28;20482;-62
2022/09/14 02:10:49;;;;;;;3.70;1.90;;;;;;;14.48;79.00;99500.56;5114302;28;20490;-63
2022/09/14 02:13:15;;;;;;;4.57;1.90;;;;;;;14.38;79.31;99499.16;5108958;28;21009;-63
2022/09/14 02:15:42;;;;;;;5.27;1.80;;;;;;;14.29;79.25;99498.41;5100116;28;20474;-62
2022/09/14 02:18:10;;;;;;;7.43;1.97;;;;;;;14.31;79.42;99493.69;5107752;28;20462;-63
2022/09/14 02:20:39;;;;;;;6.67;2.00;;;;;;;14.31;79.60;99491.81;5119886;28;20474;-63
2022/09/14 02:23:06;;;;;;;5.37;1.83;;;;;;;14.17;80.07;99481.06;5116034;28;20446;-63
2022/09/14 02:25:35;;;;;;;3.97;1.60;;;;;;;14.17;80.13;99484.56;5108410;28;21177;-63
2022/09/14 02:28:02;;;;;;;3.33;1.60;;;;;;;14.13;80.22;99484.09;5102049;28;20503;-64
2022/09/14 02:30:29;;;;;;;8.67;2.30;;;;;;;14.15;80.52;99480.38;5100548;28;20491;-63
2022/09/14 02:33:03;;;;;;;5.27;2.10;;;;;;;14.14;80.23;99476.88;5099767;28;20511;-63
2022/09/14 02:35:36;;;;;;;3.30;2.10;;;;;;;14.07;80.10;99475.94;5123238;28;20547;-63
2022/09/14 02:38:08;;;;;;;3.70;2.07;;;;;;;14.03;80.41;99477.31;5113961;28;20456;-63
2022/09/14 02:40:38;;;;;;;3.50;1.90;;;;;;;14.02;81.00;99472.94;5110527;28;21223;-63
2022/09/14 02:43:20;;;;;;;7.17;1.80;;;;;;;13.97;80.73;99461.91;5114506;28;20494;-63
2022/09/14 02:45:54;;;;;;;5.90;1.70;;;;;;;13.93;81.19;99473.03;5123192;28;20474;-64
2022/09/14 02:48:23;;;;;;;5.23;2.50;;;;;;;13.92;81.06;99467.81;5119053;28;20481;-63
2022/09/14 02:50:54;;;;;;;4.70;2.10;;;;;;;13.87;81.48;99457.63;5118882;28;20497;-63
2022/09/14 02:53:25;;;;;;;4.67;2.10;;;;;;;13.87;81.64;99444.19;5116258;28;20506;-64
2022/09/14 02:55:55;;;;;;;4.30;2.20;;;;;;;13.83;81.77;99445.56;5117134;28;20789;-63
2022/09/14 02:58:22;;;;;;;7.63;2.07;;;;;;;13.83;81.60;99450.09;5103863;28;20609;-63
2022/09/14 03:00:50;;;;;;;3.93;2.37;;;;;;;13.85;81.46;99446.25;5101481;28;21000;-63
2022/09/14 03:03:18;;;;;;;5.20;2.00;;;;;;;13.82;82.07;99446.59;5108060;28;20496;-63
2022/09/14 03:05:44;;;;;;;3.10;1.83;;;;;;;13.94;81.62;99444.31;5102812;28;21085;-64
2022/09/14 03:08:12;;;;;;;6.23;1.80;;;;;;;13.77;81.73;99445.47;5103803;28;20667;-64
2022/09/14 03:10:42;;;;;;;6.93;1.97;;;;;;;13.73;82.01;99444.97;5102106;28;20910;-64
2022/09/14 03:13:09;;;;;;;4.73;2.33;;;;;;;13.63;82.39;99449.78;5116426;28;20466;-63
2022/09/14 03:15:36;;;;;;;7.43;2.53;;;;;;;13.63;82.77;99447.09;5106782;28;20484;-62
2022/09/14 03:18:02;;;;;;;5.67;1.90;;;;;;;13.69;82.30;99441.00;5118888;28;20595;-62
2022/09/14 03:20:32;;;;;;;5.23;2.07;;;;;;;13.65;82.04;99445.91;5101892;28;20526;-63
2022/09/14 03:22:59;;;;;;;5.93;2.57;;;;;;;13.56;82.34;99449.66;5113653;28;20454;-63
2022/09/14 03:25:27;;;;;;;4.90;2.90;;;;;;;13.47;82.90;99456.09;5112041;28;20497;-63
2022/09/14 03:27:56;;;;;;;8.03;2.40;;;;;;;13.38;83.28;99449.94;5118640;28;20438;-63
2022/09/14 03:30:22;;;;;;;4.20;2.10;;;;;;;13.39;83.25;99451.63;5118604;28;20575;-63
2022/09/14 03:32:49;;;;;;;4.83;2.00;;;;;;;13.41;83.26;99446.91;5111975;28;21049;-63
2022/09/14 03:35:17;;;;;;;4.63;2.10;;;;;;;13.43;83.31;99444.88;5107696;28;20471;-65
2022/09/14 03:37:44;;;;;;;6.10;2.53;;;;;;;13.45;83.29;99439.34;5101557;28;20805;-64
2022/09/14 03:40:13;;;;;;;3.37;2.13;;;;;;;13.41;83.04;99435.34;5103381;28;21034;-64
2022/09/14 03:42:43;;;;;;;5.67;2.10;;;;;;;13.58;82.60;99430.69;5115714;28;20509;-65
2022/09/14 03:45:10;;;;;;;3.97;2.20;;;;;;;13.55;82.51;99438.06;5103478;28;20553;-65
2022/09/14 03:47:37;;;;;;;3.90;2.00;;;;;;;13.49;83.17;99428.06;5108795;28;20462;-65
2022/09/14 03:50:06;;;;;;;5.20;2.10;;;;;;;13.48;83.11;99423.69;5121012;28;20506;-65
2022/09/14 03:52:33;;;;;;;4.53;1.80;;;;;;;13.50;83.02;99435.09;5112104;28;20503;-64
2022/09/14 03:55:00;;;;;;;2.67;2.10;;;;;;;13.48;82.78;99426.38;5102624;28;20466;-65
2022/09/14 03:57:27;;;;;;;7.60;2.00;;;;;;;13.46;82.98;99420.38;5100486;28;21111;-65
2022/09/14 03:59:55;;;;;;;3.50;2.20;;;;;;;13.46;83.23;99423.03;5102884;28;20491;-65
2022/09/14 04:02:21;;;;;;;11.03;2.10;;;;;;;13.47;83.08;99424.72;5113504;28;20503;-64
2022/09/14 04:04:48;;;;;;;3.70;2.10;;;;;;;13.47;82.83;99418.50;5105666;28;20497;-64
2022/09/14 04:07:15;;;;;;;9.80;2.20;;;;;;;13.44;83.00;99425.09;5113753;28;21019;-64
2022/09/14 04:09:41;;;;;;;9.30;2.70;;;;;;;13.49;83.36;99424.56;5100831;28;20450;-64
2022/09/14 04:12:08;;;;;;;4.97;2.13;;;;;;;13.49;83.32;99411.94;5100919;28;20555;-63
2022/09/14 04:14:35;;;;;;;5.43;2.73;;;;;;;13.53;83.22;99404.38;5114808;28;20468;-63
2022/09/14 04:17:04;;;;;;;7.03;2.10;;;;;;;13.55;83.08;99411.22;5113155;28;20483;-63
2022/09/14 04:19:32;;;;;;;2.60;2.23;;;;;;;13.57;83.21;99413.72;5100669;28;20443;-64
2022/09/14 04:21:58;;;;;;;2.57;1.90;;;;;;;13.60;82.95;99412.53;5100678;28;20510;-64
2022/09/14 04:24:25;;;;;;;4.53;2.40;;;;;;;13.62;82.99;99403.28;5099152;28;20483;-64
2022/09/14 04:26:51;;;;;;;5.40;2.50;;;;;;;13.62;83.11;99403.28;5092699;28;20547;-64
2022/09/14 04:29:18;;;;;;;5.97;2.83;;;;;;;13.65;82.77;99404.78;5100756;28;20471;-64
2022/09/14 04:31:45;;;;;;;9.40;2.10;;;;;;;13.62;82.82;99418.56;5103666;28;20491;-63
2022/09/14 04:34:13;;;;;;;3.50;2.70;;;;;;;13.62;83.00;99416.69;5104684;28;20454;-64
2022/09/14 04:36:40;;;;;;;7.60;2.33;;;;;;;13.61;83.06;99403.44;5100248;28;20557;-63
2022/09/14 04:39:06;;;;;;;3.07;2.77;;;;;;;13.60;83.14;99417.91;5102138;28;20463;-63
2022/09/14 04:41:33;;;;;;;3.90;2.03;;;;;;;13.58;83.07;99415.41;5099736;28;20498;-63
2022/09/14 04:44:00;;;;;;;5.43;2.90;;;;;;;13.58;83.02;99409.22;5100037;28;20510;-63
2022/09/14 04:46:28;;;;;;;4.67;2.20;;;;;;;13.59;83.16;99417.06;5100751;28;20475;-63
2022/09/14 04:48:55;;;;;;;6.57;2.47;;;;;;;13.61;82.95;99400.75;5100429;28;20435;-63
2022/09/14 04:51:24;;;;;;;5.03;2.40;;;;;;;13.60;83.22;99401.81;5102098;28;20504;-63
2022/09/14 04:53:55;;;;;;;5.00;2.40;;;;;;;13.59;83.22;99400.13;5097625;28;20546;-63
2022/09/14 04:56:22;;;;;;;6.43;2.20;;;;;;;13.60;83.26;99396.44;5105357;28;20484;-63
2022/09/14 04:58:53;;;;;;;8.20;2.43;;;;;;;13.63;83.10;99391.53;5118484;28;20478;-63
2022/09/14 05:01:21;;;;;;;4.23;2.67;;;;;;;13.68;83.26;99399.88;5118737;28;20477;-63
2022/09/14 05:03:48;;;;;;;3.90;2.57;;;;;;;13.71;83.08;99391.47;5117516;28;20511;-63
2022/09/14 05:06:21;;;;;;;5.53;2.60;;;;;;;13.69;82.74;99388.09;5099608;28;20475;-63
2022/09/14 05:08:50;;;;;;;5.83;3.03;;;;;;;13.64;82.83;99385.13;5099808;28;20562;-65
2022/09/14 05:11:18;;;;;;;5.03;2.60;;;;;;;13.72;82.62;99385.06;5100497;28;20573;-64
2022/09/14 05:13:45;;;;;;;4.97;2.77;;;;;;;13.74;82.59;99385.69;5116823;28;20513;-63
2022/09/14 05:16:15;;;;;;;2.97;2.10;;;;;;;13.80;82.68;99389.53;5101734;28;21024;-64
2022/09/14 05:18:42;;;;;;;7.70;2.50;;;;;;;13.81;82.63;99393.88;5100319;28;20474;-63
2022/09/14 05:21:11;;;;;;;6.80;2.60;;;;;;;13.88;82.62;99388.59;5101229;28;20594;-64
2022/09/14 05:23:38;;;;;;;7.20;2.80;;;;;;;13.92;82.18;99396.13;5100187;28;20465;-63
2022/09/14 05:26:07;;;;;;;5.07;3.07;;;;;;;13.89;82.19;99392.97;5097782;28;20477;-64
2022/09/14 05:28:34;;;;;;;7.07;2.60;;;;;;;13.86;82.68;99387.97;5100372;28;20435;-64
2022/09/14 05:31:07;;;;;;;8.07;2.63;;;;;;;13.83;82.76;99396.38;5106587;28;20470;-63
2022/09/14 05:33:34;;;;;;;7.77;3.47;;;;;;;13.76;82.54;99393.56;5120615;28;20477;-63
2022/09/14 05:36:01;;;;;;;5.77;3.40;;;;;;;13.85;82.62;99394.34;5105922;28;20490;-63
2022/09/14 05:38:29;;;;;;;7.80;3.67;;;;;;;13.90;82.05;99390.06;5099822;28;20450;-63
2022/09/14 05:40:55;;;;;;;5.10;3.30;;;;;;;14.02;81.91;99389.63;5099481;28;20471;-63
2022/09/14 05:43:24;;;;;;;3.70;2.90;;;;;;;14.01;81.37;99388.81;5100045;28;20497;-64
2022/09/14 05:45:51;;;;;;;6.27;3.33;;;;;;;14.08;81.12;99387.06;5100006;28;21365;-63
2022/09/14 05:48:18;;;;;;;5.60;3.70;;;;;;;14.12;81.23;99388.34;5099830;28;20451;-64
2022/09/14 05:50:44;;;;;;;3.43;2.53;;;;;;;14.19;81.23;99387.63;5097969;28;20517;-63
2022/09/14 05:53:11;;;;;;;5.60;3.23;;;;;;;14.16;80.92;99379.91;5099603;28;20494;-63
2022/09/14 05:55:38;;;;;;;9.03;4.60;;;;;;;14.16;80.74;99380.75;5098809;28;20470;-64
2022/09/14 05:58:04;;;;;;;7.50;4.50;;;;;;;14.09;80.81;99379.81;5099194;28;20448;-64
2022/09/14 06:00:32;;;;;;;11.53;4.40;;;;;;;14.11;81.03;99378.63;5078660;28;20499;-64
2022/09/14 06:02:59;;;;;;;6.70;3.50;;;;;;;14.13;80.68;99379.28;5088497;28;20984;-63
2022/09/14 06:05:26;;;;;;;7.57;4.07;;;;;;;14.14;81.02;99372.03;5098936;27;20617;-63
2022/09/14 06:07:54;;;;;;;6.73;3.20;;;;;;;14.24;80.72;99371.75;5099863;28;20547;-63
2022/09/14 06:10:21;;;;;;;7.00;3.27;;;;;;;14.32;79.92;99377.03;5097121;28;20470;-63
2022/09/14 06:12:48;;;;;;;6.70;4.17;;;;;;;14.37;79.99;99363.03;5099346;28;20541;-63
2022/09/14 06:15:15;;;;;;;8.03;3.90;;;;;;;14.36;79.43;99361.38;5098510;28;20439;-63
2022/09/14 06:17:43;;;;;;;5.33;3.27;;;;;;;14.47;79.20;99366.25;5098500;28;20446;-64
2022/09/14 06:20:11;;;;;;;7.33;3.30;;;;;;;14.61;78.79;99370.81;5099064;28;20447;-63
2022/09/14 06:22:37;;;;;;;5.43;3.13;;;;;;;14.67;78.71;99362.00;5098492;28;20446;-63
2022/09/14 06:25:04;;;;;;;7.73;3.03;;;;;;;14.77;78.67;99368.94;5078719;28;20986;-63
2022/09/14 06:27:31;;;;;;;4.93;3.70;;;;;;;14.79;77.78;99364.19;5086414;28;20513;-64
2022/09/14 06:29:58;;;;;;;8.97;3.97;;;;;;;14.79;77.78;99374.94;5099503;28;20568;-63
2022/09/14 06:32:26;;;;;;;5.20;3.57;;;;;;;14.83;77.57;99362.81;5097683;28;20548;-63
2022/09/14 06:34:54;;;;;;;7.13;3.97;;;;;;;14.87;77.27;99364.06;5098288;28;20455;-63
2022/09/14 06:37:21;;;;;;;10.83;4.47;;;;;;;14.71;77.04;99362.44;5098311;27;20478;-63
2022/09/14 06:39:48;;;;;;;8.23;4.17;;;;;;;14.86;77.28;99355.19;5098669;28;20843;-64
2022/09/14 06:42:14;;;;;;;14.13;5.03;;;;;;;15.00;76.25;99355.31;5096348;28;20482;-64
2022/09/14 06:44:41;;;;;;;6.17;4.60;;;;;;;15.19;75.95;99362.75;5098250;28;20470;-64
2022/09/14 06:47:07;;;;;;;4.87;3.60;;;;;;;15.29;75.41;99364.28;5097122;28;20471;-63
2022/09/14 06:49:34;;;;;;;8.37;4.20;;;;;;;15.34;74.87;99361.84;5097957;28;20897;-63
2022/09/14 06:52:02;;;;;;;9.73;3.93;;;;;;;15.34;74.88;99361.84;5097577;28;20542;-64
2022/09/14 06:54:29;;;;;;;10.63;4.10;;;;;;;15.38;74.70;99360.44;5096777;28;20518;-64
2022/09/14 06:56:55;;;;;;;6.97;3.80;;;;;;;15.35;74.68;99364.34;5093426;28;20483;-63
2022/09/14 06:59:22;;;;;;;7.00;3.40;;;;;;;15.39;74.13;99354.84;5098369;28;20486;-63
2022/09/14 07:01:49;;;;;;;7.37;3.40;;;;;;;15.36;73.69;99357.94;5097630;28;20514;-63
2022/09/14 07:04:16;;;;;;;8.13;3.70;;;;;;;15.32;73.93;99378.19;5097369;28;20466;-63
2022/09/14 07:06:44;;;;;;;8.63;3.47;;;;;;;15.42;73.67;99365.25;5097846;28;20475;-64
2022/09/14 07:09:12;;;;;;;8.50;3.63;;;;;;;15.59;73.80;99368.50;5098381;28;20446;-65
2022/09/14 07:11:40;;;;;;;5.47;3.50;;;;;;;15.88;72.77;99368.53;5097115;27;20475;-64
2022/09/14 07:14:07;;;;;;;7.83;3.70;;;;;;;15.82;72.37;99376.38;5097751;28;20993;-64
2022/09/14 07:16:35;;;;;;;8.20;3.53;;;;;;;15.75;73.45;99380.06;5097659;27;20486;-64
2022/09/14 07:19:03;;;;;;;4.73;3.57;;;;;;;15.65;73.58;99374.97;5097128;28;20458;-64
2022/09/14 07:21:30;;;;;;;5.47;3.53;;;;;;;15.54;74.26;99378.19;5098945;28;20483;-64
2022/09/14 07:23:57;;;;;;;4.90;3.13;;;;;;;15.96;73.10;99387.25;5100784;28;20476;-64
2022/09/14 07:26:27;;;;;;;5.80;3.77;;;;;;;16.23;71.54;99382.88;5099747;28;20543;-65
2022/09/14 07:28:55;;;;;;;10.30;3.70;;;;;;;16.42;70.88;99381.28;5101903;28;20468;-64
2022/09/14 07:31:23;;;;;;;8.77;3.33;;;;;;;16.81;69.62;99389.78;5101655;27;20492;-64
2022/09/14 07:33:52;;;;;;;3.97;3.07;;;;;;;17.18;67.28;99384.91;5101325;28;20554;-64
2022/09/14 07:36:19;;;;;;;6.63;3.13;;;;;;;17.27;66.03;99381.81;5101337;28;20497;-64
2022/09/14 07:38:45;;;;;;;6.60;3.00;;;;;;;17.30;66.65;99381.38;5101488;28;20442;-65
2022/09/14 07:41:12;;;;;;;7.13;2.83;;;;;;;17.38;66.18;99380.38;5099490;27;20470;-65
2022/09/14 07:43:40;;;;;;;4.83;2.83;;;;;;;17.30;66.08;99370.56;5100826;28;20956;-64
2022/09/14 07:46:07;;;;;;;8.40;2.80;;;;;;;17.28;65.87;99375.34;5092699;28;20464;-64
2022/09/14 07:48:35;;;;;;;6.17;3.33;;;;;;;16.84;67.36;99376.72;5080469;28;21016;-64
2022/09/14 07:51:03;;;;;;;7.30;3.40;;;;;;;16.80;67.26;99382.69;5080329;28;20517;-64
2022/09/14 07:53:30;;;;;;;6.90;3.27;;;;;;;17.09;65.68;99387.78;5075551;28;20490;-64
2022/09/14 07:55:58;;;;;;;6.83;3.50;;;;;;;17.02;66.60;99392.34;5086094;28;20543;-64
2022/09/14 07:58:25;;;;;;;4.20;3.20;;;;;;;17.23;67.38;99398.63;5099182;28;20494;-64
2022/09/14 08:00:58;;;;;;;7.23;2.80;;;;;;;17.31;65.69;99391.16;5099413;28;21020;-64
2022/09/14 08:03:24;;;;;;;7.53;2.60;;;;;;;17.11;65.48;99395.69;5098938;28;20472;-65
2022/09/14 08:05:58;;;;;;;6.80;3.30;;;;;;;17.30;66.18;99383.25;5092593;28;20495;-64
2022/09/14 08:08:25;;;;;;;7.87;2.83;;;;;;;17.29;66.68;99382.44;5101127;28;20452;-64
2022/09/14 08:10:51;;;;;;;8.30;3.20;;;;;;;17.01;67.67;99384.44;5099196;28;20467;-64
2022/09/14 08:13:18;;;;;;;6.80;2.90;;;;;;;16.47;70.04;99389.59;5100081;28;20478;-64
2022/09/14 08:15:45;;;;;;;6.40;3.53;;;;;;;17.09;68.95;99390.50;5094427;28;20509;-65
2022/09/14 08:18:13;;;;;;;5.50;2.80;;;;;;;17.18;68.02;99390.31;5099761;28;20917;-65
2022/09/14 08:20:40;;;;;;;8.73;3.80;;;;;;;17.33;67.79;99396.38;5098670;28;20475;-65
2022/09/14 08:23:10;;;;;;;6.40;3.27;;;;;;;17.40;66.64;99388.28;5098898;28;20493;-65
2022/09/14 08:25:36;;;;;;;7.30;2.27;;;;;;;17.16;66.75;99376.19;5099342;28;20512;-65
2022/09/14 08:28:04;;;;;;;7.90;2.77;;;;;;;17.15;65.55;99377.22;5095096;28;20492;-65
2022/09/14 08:30:31;;;;;;;7.50;2.77;;;;;;;17.55;64.50;99379.94;5095731;27;20528;-65
2022/09/14 08:32:57;;;;;;;10.43;2.37;;;;;;;17.57;65.19;99376.03;5099716;28;20452;-65
2022/09/14 08:35:25;;;;;;;6.07;2.10;;;;;;;17.80;64.51;99353.13;5099541;28;20440;-65
2022/09/14 08:37:52;;;;;;;6.20;2.70;;;;;;;17.90;63.60;99363.53;5099794;28;20438;-65
2022/09/14 08:40:19;;;;;;;8.03;2.20;;;;;;;17.94;63.11;99359.38;5096337;27;20455;-65
2022/09/14 08:42:47;;;;;;;6.33;1.93;;;;;;;17.90;63.08;99363.53;5091337;28;20986;-65
2022/09/14 08:45:16;;;;;;;8.00;3.03;;;;;;;17.40;65.57;99367.47;5093507;28;20467;-65
2022/09/14 08:47:43;;;;;;;7.27;2.20;;;;;;;17.67;64.46;99362.91;5099896;28;20504;-65
2022/09/14 08:50:13;;;;;;;5.30;2.30;;;;;;;17.31;66.14;99366.84;5099174;28;20440;-64
2022/09/14 08:52:43;;;;;;;4.80;2.10;;;;;;;17.41;65.79;99366.47;5099351;28;21006;-65
2022/09/14 08:55:19;;;;;;;10.40;2.50;;;;;;;17.37;66.36;99367.06;5098323;28;20657;-65
2022/09/14 08:57:49;;;;;;;4.03;2.03;;;;;;;17.46;66.02;99366.66;5099181;28;20424;-65
2022/09/14 09:00:18;;;;;;;6.20;2.60;;;;;;;17.78;64.45;99360.63;5092834;28;21071;-65
2022/09/14 09:03:10;;;;;;;7.87;2.60;;;;;;;17.77;64.85;99353.53;5099888;28;20471;-65
2022/09/14 09:05:40;;;;;;;6.90;2.67;;;;;;;17.82;64.75;99343.75;5078468;28;20472;-65
2022/09/14 09:08:16;;;;;;;4.47;2.33;;;;;;;17.94;64.60;99365.63;5088677;28;20447;-65
2022/09/14 09:10:42;;;;;;;8.60;2.43;;;;;;;17.63;65.68;99358.94;5098662;28;20475;-65
2022/09/14 09:13:13;;;;;;;4.77;2.80;;;;;;;17.59;65.48;99355.00;5097985;28;20509;-67
2022/09/14 09:15:47;;;;;;;8.63;2.97;;;;;;;17.35;66.51;99364.56;5096964;28;20465;-65
2022/09/14 09:18:18;;;;;;;5.30;3.30;;;;;;;17.07;67.66;99357.47;5097923;28;20475;-65
2022/09/14 09:20:47;;;;;;;11.37;2.90;;;;;;;16.61;69.29;99360.81;5094495;28;20542;-65
2022/09/14 09:23:18;;;;;;;7.63;2.60;;;;;;;17.10;68.57;99361.63;5089608;28;20439;-64
2022/09/14 09:25:51;;;;;;;6.10;2.50;;;;;;;17.29;68.26;99366.22;5096546;28;20474;-65
2022/09/14 09:28:18;;;;;;;6.03;2.33;;;;;;;17.74;66.13;99364.78;5098631;28;20461;-65
2022/09/14 09:30:45;;;;;;;6.87;3.03;;;;;;;17.87;65.78;99368.31;5093705;28;20473;-65
2022/09/14 09:33:16;;;;;;;3.90;2.67;;;;;;;17.85;65.79;99358.75;5098513;28;20547;-64
2022/09/14 09:35:42;;;;;;;6.50;2.13;;;;;;;17.74;65.56;99359.38;5094850;28;20476;-65
2022/09/14 09:38:15;;;;;;;4.40;1.97;;;;;;;17.66;66.50;99350.44;5099076;28;20484;-65
2022/09/14 09:40:45;;;;;;;10.43;3.20;;;;;;;17.83;65.56;99345.44;5087506;28;20491;-65
2022/09/14 09:43:14;;;;;;;7.80;2.20;;;;;;;17.75;65.55;99342.94;5084930;28;20821;-65
2022/09/14 09:45:56;;;;;;;4.70;1.97;;;;;;;18.01;65.71;99325.03;5092803;27;20486;-65
2022/09/14 09:48:25;;;;;;;4.17;2.10;;;;;;;18.20;64.91;99320.63;5091898;28;20513;-65
2022/09/14 09:51:01;;;;;;;7.60;1.93;;;;;;;18.24;64.15;99314.59;5093580;28;20552;-65
2022/09/14 09:53:29;;;;;;;3.10;1.80;;;;;;;18.09;63.71;99316.72;5096828;28;20961;-65
2022/09/14 09:55:56;;;;;;;6.10;2.13;;;;;;;18.00;63.98;99316.09;5097318;28;20495;-65
2022/09/14 09:58:29;;;;;;;4.50;1.57;;;;;;;17.91;63.94;99311.94;5097276;28;20447;-65
2022/09/14 10:00:58;;;;;;;6.07;1.83;;;;;;;18.22;63.48;99313.94;5096665;28;20487;-65
2022/09/14 10:03:31;;;;;;;5.47;1.50;;;;;;;17.96;63.29;99322.16;5077919;28;20457;-65
2022/09/14 10:06:03;;;;;;;5.20;1.90;;;;;;;17.90;63.78;99328.38;5088720;28;20949;-64
2022/09/14 10:08:34;;;;;;;5.60;2.13;;;;;;;17.87;63.87;99335.06;5097500;28;20447;-65
2022/09/14 10:11:02;;;;;;;3.23;1.40;;;;;;;18.18;63.61;99333.53;5090139;28;20487;-65
2022/09/14 10:13:31;;;;;;;5.87;1.97;;;;;;;18.06;63.20;99334.19;5098093;28;20528;-65
2022/09/14 10:16:16;;;;;;;7.40;1.93;;;;;;;17.84;64.86;99347.06;5097202;28;20467;-65
2022/09/14 10:18:44;;;;;;;5.33;1.67;;;;;;;17.86;62.97;99346.91;5089338;28;20504;-65
2022/09/14 10:21:11;;;;;;;4.63;1.57;;;;;;;17.94;63.34;99349.41;5093322;28;20489;-65
2022/09/14 10:23:39;;;;;;;6.10;2.30;;;;;;;18.15;63.86;99340.19;5098074;28;20435;-65
2022/09/14 10:26:36;;;;;;;5.23;2.50;;;;;;;17.73;64.20;99338.81;5097737;28;20502;-65
2022/09/14 10:29:29;;;;;;;3.93;1.97;;;;;;;17.84;64.74;99332.72;5074453;28;20455;-65
2022/09/14 10:32:01;;;;;;;6.40;1.77;;;;;;;18.05;64.17;99329.81;5090752;28;20483;-66
2022/09/14 10:34:28;;;;;;;5.00;2.67;;;;;;;18.08;65.29;99325.03;5091217;28;20478;-65
2022/09/14 10:37:01;;;;;;;4.13;1.33;;;;;;;18.22;65.47;99318.53;5095407;28;20468;-65
2022/09/14 10:39:39;;;;;;;7.20;2.50;;;;;;;18.35;65.41;99313.06;5104052;28;20471;-65
2022/09/14 10:42:15;;;;;;;2.87;1.23;;;;;;;18.55;64.53;99312.16;5090584;28;20556;-66
2022/09/14 10:44:52;;;;;;;6.23;1.63;;;;;;;18.37;66.06;99310.97;5099335;28;20484;-65
2022/09/14 10:47:34;;;;;;;7.07;2.07;;;;;;;17.97;66.20;99318.41;5092860;27;20498;-66
2022/09/14 10:50:10;;;;;;;4.63;1.53;;;;;;;17.79;65.57;99322.53;5075409;28;20461;-65
2022/09/14 10:52:43;;;;;;;4.50;2.27;;;;;;;17.70;65.55;99318.41;5096567;28;20535;-65
2022/09/14 10:55:30;;;;;;;5.57;2.00;;;;;;;17.95;67.51;99310.50;5099823;27;20876;-64
2022/09/14 10:58:06;;;;;;;5.93;1.60;;;;;;;18.03;65.41;99302.13;5096580;28;20479;-64
2022/09/14 11:00:40;;;;;;;3.90;1.50;;;;;;;18.02;66.98;99303.19;5093836;28;20470;-65
2022/09/14 11:03:19;;;;;;;5.90;1.80;;;;;;;17.99;67.31;99302.78;5101842;28;20520;-64
2022/09/14 11:05:54;;;;;;;3.53;1.60;;;;;;;17.88;67.22;99298.88;5101005;27;20487;-64
2022/09/14 11:08:30;;;;;;;6.50;1.63;;;;;;;17.65;70.16;99310.09;5100606;28;20461;-64
2022/09/14 11:11:13;;;;;;;6.23;1.43;;;;;;;17.76;68.91;99308.63;5097990;27;20479;-65
2022/09/14 11:13:52;;;;;;;6.27;1.97;;;;;;;17.75;68.59;99307.78;5099222;28;20455;-64
2022/09/14 11:16:32;;;;;;;4.53;2.20;;;;;;;17.69;69.84;99311.34;5094551;28;20460;-64
2022/09/14 11:19:06;;;;;;;4.00;2.00;;;;;;;17.76;68.99;99308.63;5102567;28;20481;-64
2022/09/14 11:21:40;;;;;;;5.33;1.70;;;;;;;17.64;69.91;99308.44;5091110;28;20591;-65
2022/09/14 11:24:15;;;;;;;5.37;2.13;;;;;;;17.59;68.69;99302.84;5097068;28;20547;-65
2022/09/14 11:26:45;;;;;;;4.63;1.70;;;;;;;17.54;71.58;99321.56;5111258;28;20502;-64
2022/09/14 11:29:17;;;;;;;4.77;1.90;;;;;;;17.63;72.15;99317.59;5120830;28;20881;-65
2022/09/14 11:31:49;;;;;;;4.37;2.17;;;;;;;17.46;69.76;99322.56;5110515;28;20507;-64
2022/09/14 11:34:19;;;;;;;5.13;2.03;;;;;;;17.58;73.10;99318.19;5101646;28;20596;-65
2022/09/14 11:36:50;;;;;;;4.07;1.80;;;;;;;17.68;72.59;99315.09;5095730;28;20539;-65
2022/09/14 11:39:19;;;;;;;4.43;2.50;;;;;;;17.72;70.56;99310.09;5100925;28;20471;-65
2022/09/14 11:41:50;;;;;;;3.73;2.07;;;;;;;17.71;70.35;99311.97;5093376;28;21162;-65
2022/09/14 11:44:25;;;;;;;5.60;2.17;;;;;;;17.43;70.07;99313.03;5098374;28;20531;-65